createdAt,value
2022-12-18T00:00:29.759Z,100797.88
2022-12-18T00:01:36.121Z,100800.41
2022-12-18T00:02:39.446Z,100807.75
2022-12-18T00:03:44.155Z,100811.31
2022-12-18T00:04:48.042Z,100803.13
2022-12-18T00:05:51.943Z,100806.70
2022-12-18T00:06:55.918Z,100801.25
2022-12-18T00:07:58.991Z,100795.80
2022-12-18T00:09:03.666Z,100802.09
2022-12-18T00:10:07.926Z,100793.91
2022-12-18T00:11:17.320Z,100790.11
2022-12-18T00:12:20.435Z,100789.91
2022-12-18T00:13:23.517Z,100786.98
2022-12-18T00:14:26.712Z,100797.89
2022-12-18T00:15:29.862Z,100794.11
2022-12-18T00:16:34.856Z,100791.39
2022-12-18T00:17:38.014Z,100785.70
2022-12-18T00:18:41.829Z,100780.24
2022-12-18T00:19:45.058Z,100765.56
2022-12-18T00:20:48.296Z,100752.77
2022-12-18T00:21:51.508Z,100758.86
2022-12-18T00:22:54.589Z,100760.55
2022-12-18T00:23:58.345Z,100758.42
2022-12-18T00:25:01.434Z,100747.52
2022-12-18T00:26:07.632Z,100725.69
2022-12-18T00:27:10.810Z,100687.50
2022-12-18T00:28:13.978Z,100637.56
2022-12-18T00:29:17.349Z,100636.52
2022-12-18T00:30:20.508Z,100656.45
2022-12-18T00:31:25.147Z,100677.44
2022-12-18T00:32:28.906Z,100691.91
2022-12-18T00:33:32.107Z,100709.12
2022-12-18T00:34:35.221Z,100722.97
2022-12-18T00:35:38.394Z,100750.03
2022-12-18T00:36:42.068Z,100770.17
2022-12-18T00:37:45.227Z,100787.38
2022-12-18T00:38:48.609Z,100804.80
2022-12-18T00:39:53.429Z,100810.25
2022-12-18T00:40:56.757Z,100802.91
2022-12-18T00:42:18.061Z,100796.61
2022-12-18T00:43:21.253Z,100803.75
2022-12-18T00:44:24.470Z,100776.47
2022-12-18T00:45:30.792Z,100769.33
2022-12-18T00:46:34.141Z,100770.38
2022-12-18T00:47:37.327Z,100784.86
2022-12-18T00:48:40.540Z,100781.29
2022-12-18T00:49:43.662Z,100769.33
2022-12-18T00:50:48.595Z,100757.58
2022-12-18T00:51:52.064Z,100766.84
2022-12-18T00:52:55.178Z,100765.77
2022-12-18T00:53:59.056Z,100763.03
2022-12-18T00:55:06.278Z,100763.88
2022-12-18T00:56:07.784Z,100766.61
2022-12-18T00:57:10.886Z,100763.03
2022-12-18T00:58:16.122Z,100758.42
2022-12-18T00:59:19.515Z,100765.56
2022-12-18T01:00:23.041Z,100775.63
2022-12-18T01:01:26.375Z,100774.79
2022-12-18T01:02:29.629Z,100787.38
2022-12-18T01:03:32.956Z,100785.50
2022-12-18T01:04:36.173Z,100771.02
2022-12-18T01:05:43.016Z,100776.47
2022-12-18T01:06:46.292Z,100775.42
2022-12-18T01:07:49.342Z,100772.70
2022-12-18T01:08:52.511Z,100778.16
2022-12-18T01:09:55.635Z,100771.86
2022-12-18T01:10:58.698Z,100768.28
2022-12-18T01:12:01.858Z,100774.58
2022-12-18T01:13:04.940Z,100775.42
2022-12-18T01:14:08.144Z,100766.41
2022-12-18T01:15:14.030Z,100764.52
2022-12-18T01:16:18.266Z,100765.56
2022-12-18T01:17:21.743Z,100765.56
2022-12-18T01:18:24.888Z,100769.13
2022-12-18T01:19:27.975Z,100760.95
2022-12-18T01:20:31.340Z,100753.60
2022-12-18T01:21:34.291Z,100751.92
2022-12-18T01:22:39.491Z,100748.15
2022-12-18T01:23:43.937Z,100744.58
2022-12-18T01:24:46.949Z,100746.47
2022-12-18T01:25:49.994Z,100741.02
2022-12-18T01:26:53.030Z,100739.97
2022-12-18T01:27:56.068Z,100739.97
2022-12-18T01:28:59.364Z,100738.28
2022-12-18T01:30:02.759Z,100742.70
2022-12-18T01:31:20.761Z,100751.08
2022-12-18T01:32:24.004Z,100754.65
2022-12-18T01:33:27.037Z,100752.77
2022-12-18T01:34:30.075Z,100747.30
2022-12-18T01:35:33.099Z,100745.63
2022-12-18T01:36:39.436Z,100742.06
2022-12-18T01:37:42.733Z,100732.19
2022-12-18T01:38:46.537Z,100732.19
2022-12-18T01:39:50.433Z,100738.72
2022-12-18T01:40:58.675Z,100738.92
2022-12-18T01:42:03.862Z,100742.70
2022-12-18T01:43:09.759Z,100746.27
2022-12-18T01:44:49.501Z,100738.09
2022-12-18T01:45:52.772Z,100744.59
2022-12-18T01:46:56.065Z,100748.36
2022-12-18T01:48:05.389Z,100740.17
2022-12-18T01:49:08.631Z,100737.45
2022-12-18T01:50:19.148Z,100747.75
2022-12-18T01:51:22.967Z,100748.59
2022-12-18T01:52:29.625Z,100755.09
2022-12-18T01:53:32.752Z,100755.94
2022-12-18T01:54:36.104Z,100761.39
2022-12-18T01:55:43.021Z,100752.36
2022-12-18T01:56:47.887Z,100761.39
2022-12-18T01:57:54.579Z,100766.00
2022-12-18T01:59:04.346Z,100759.70
2022-12-18T02:00:11.729Z,100758.86
2022-12-18T02:01:18.158Z,100752.56
2022-12-18T02:02:22.195Z,100759.91
2022-12-18T02:03:25.508Z,100751.72
2022-12-18T02:04:28.970Z,100767.25
2022-12-18T02:05:56.675Z,100768.92
2022-12-18T02:07:03.313Z,100765.36
2022-12-18T02:08:13.408Z,100774.58
2022-12-18T02:11:07.359Z,100768.92
2022-12-18T02:12:23.048Z,100774.18
2022-12-18T02:13:49.247Z,100775.22
2022-12-18T02:15:17.050Z,100769.16
2022-12-18T02:16:26.071Z,100770.20
2022-12-18T02:17:35.451Z,100770.20
2022-12-18T02:18:42.212Z,100785.72
2022-12-18T02:19:52.072Z,100774.81
2022-12-18T02:21:07.708Z,100784.04
2022-12-18T02:22:32.636Z,100784.04
2022-12-18T02:23:42.611Z,100779.43
2022-12-18T02:25:07.555Z,100783.00
2022-12-18T02:26:29.436Z,100781.11
2022-12-18T02:27:34.407Z,100787.61
2022-12-18T02:28:43.952Z,100790.34
2022-12-18T02:31:06.808Z,100780.68
2022-12-18T02:32:17.104Z,100776.70
2022-12-18T02:33:22.753Z,100782.16
2022-12-18T02:34:29.407Z,100775.86
2022-12-18T02:35:34.622Z,100778.59
2022-12-18T02:36:41.254Z,100785.72
2022-12-18T02:37:47.468Z,100788.45
2022-12-18T02:38:52.952Z,100791.78
2022-12-18T02:39:58.932Z,100788.25
2022-12-18T02:41:03.910Z,100797.23
2022-12-18T02:42:09.833Z,100798.08
2022-12-18T02:43:15.699Z,100803.53
2022-12-18T02:44:19.031Z,100798.72
2022-12-18T02:45:22.321Z,100809.63
2022-12-18T02:46:29.093Z,100805.86
2022-12-18T02:47:35.844Z,100803.97
2022-12-18T02:48:39.425Z,100803.74
2022-12-18T02:50:04.547Z,100803.74
2022-12-18T02:53:00.593Z,100810.25
2022-12-18T02:54:15.994Z,100815.29
2022-12-18T02:55:37.726Z,100825.36
2022-12-18T02:56:46.257Z,100821.59
2022-12-18T02:58:17.383Z,100823.47
2022-12-18T02:59:24.443Z,100824.31
2022-12-18T03:00:42.271Z,100818.86
2022-12-18T03:01:54.959Z,100821.59
2022-12-18T03:03:02.187Z,100823.27
2022-12-18T03:04:14.959Z,100825.16
2022-12-18T03:05:27.993Z,100826.84
2022-12-18T03:06:34.810Z,100821.39
2022-12-18T03:07:59.652Z,100821.39
2022-12-18T03:09:13.900Z,100821.16
2022-12-18T03:10:20.941Z,100827.45
2022-12-18T03:11:27.597Z,100823.87
2022-12-18T03:12:35.103Z,100827.45
2022-12-18T03:13:48.078Z,100826.41
2022-12-18T03:15:14.528Z,100826.41
2022-12-18T03:16:21.576Z,100820.75
2022-12-18T03:17:28.498Z,100817.18
2022-12-18T03:18:35.122Z,100822.44
2022-12-18T03:19:39.716Z,100825.16
2022-12-18T03:20:46.506Z,100827.66
2022-12-18T03:21:54.328Z,100829.58
2022-12-18T03:23:00.976Z,100827.66
2022-12-18T03:24:07.763Z,100823.88
2022-12-18T03:25:14.729Z,100831.02
2022-12-18T03:26:24.108Z,100832.71
2022-12-18T03:27:31.860Z,100832.71
2022-12-18T03:28:39.364Z,100839.01
2022-12-18T03:29:50.746Z,100843.42
2022-12-18T03:30:59.415Z,100837.96
2022-12-18T03:32:09.025Z,100845.07
2022-12-18T03:33:20.051Z,100836.89
2022-12-18T03:34:27.059Z,100841.30
2022-12-18T03:35:33.785Z,100850.33
2022-12-18T03:36:37.097Z,100847.80
2022-12-18T03:37:40.703Z,100842.58
2022-12-18T03:38:44.381Z,100846.98
2022-12-18T03:39:47.659Z,100852.45
2022-12-18T03:40:57.255Z,100847.80
2022-12-18T03:42:04.025Z,100852.45
2022-12-18T03:43:31.398Z,100853.48
2022-12-18T03:44:47.570Z,100846.98
2022-12-18T03:45:57.270Z,100857.05
2022-12-18T03:47:07.665Z,100857.90
2022-12-18T03:48:17.349Z,100849.92
2022-12-18T03:50:53.291Z,100861.24
2022-12-18T03:52:20.961Z,100867.53
2022-12-18T03:53:27.597Z,100861.23
2022-12-18T03:54:32.617Z,100870.05
2022-12-18T03:55:39.077Z,100872.97
2022-12-18T03:56:45.637Z,100873.20
2022-12-18T03:57:49.521Z,100877.81
2022-12-18T03:58:55.763Z,100860.81
2022-12-18T04:01:18.686Z,100878.23
2022-12-18T04:02:24.357Z,100882.84
2022-12-18T04:03:30.598Z,100884.52
2022-12-18T04:04:36.275Z,100894.36
2022-12-18T04:05:41.789Z,100889.30
2022-12-18T04:06:47.616Z,100899.15
2022-12-18T04:07:54.398Z,100893.67
2022-12-18T04:08:59.477Z,100908.55
2022-12-18T04:10:04.980Z,100906.22
2022-12-18T04:11:08.450Z,100914.52
2022-12-18T04:12:11.544Z,100924.77
2022-12-18T04:13:27.081Z,100930.59
2022-12-18T04:14:30.119Z,100921.93
2022-12-18T04:15:37.073Z,100933.39
2022-12-18T04:16:40.887Z,100943.61
2022-12-18T04:17:49.089Z,100951.11
2022-12-18T04:18:54.371Z,100954.81
2022-12-18T04:19:58.074Z,100961.89
2022-12-18T04:21:01.656Z,100962.02
2022-12-18T04:22:04.753Z,100962.84
2022-12-18T04:23:10.195Z,100974.50
2022-12-18T04:24:13.551Z,100962.53
2022-12-18T04:25:18.815Z,100967.91
2022-12-18T04:26:32.872Z,100968.02
2022-12-18T04:27:43.357Z,100966.67
2022-12-18T04:28:46.595Z,100969.53
2022-12-18T04:29:49.574Z,100978.65
2022-12-18T04:30:54.719Z,100976.70
2022-12-18T04:31:58.335Z,100971.84
2022-12-18T04:33:02.570Z,100965.30
2022-12-18T04:34:07.009Z,100976.75
2022-12-18T04:35:12.363Z,100979.20
2022-12-18T04:37:05.702Z,100978.81
2022-12-18T04:38:10.274Z,100988.70
2022-12-18T04:39:13.600Z,100995.34
2022-12-18T04:40:18.006Z,100994.05
2022-12-18T04:41:22.694Z,101000.66
2022-12-18T04:42:26.011Z,100996.64
2022-12-18T04:43:29.225Z,101010.61
2022-12-18T04:44:32.433Z,100995.70
2022-12-18T04:45:36.314Z,101013.05
2022-12-18T04:46:39.478Z,101013.41
2022-12-18T04:47:42.758Z,101021.95
2022-12-18T04:48:47.348Z,101015.86
2022-12-18T04:49:50.324Z,101024.39
2022-12-18T04:50:53.707Z,101024.08
2022-12-18T04:51:56.738Z,101028.39
2022-12-18T04:52:59.771Z,101031.67
2022-12-18T04:54:02.915Z,101028.84
2022-12-18T04:55:06.557Z,101034.45
2022-12-18T04:56:15.397Z,101034.45
2022-12-18T04:57:21.150Z,101038.95
2022-12-18T04:58:24.219Z,101040.03
2022-12-18T04:59:27.309Z,101038.26
2022-12-18T05:00:30.678Z,101040.01
2022-12-18T05:01:35.393Z,101045.31
2022-12-18T05:02:39.815Z,101046.24
2022-12-18T05:03:44.151Z,101046.97
2022-12-18T05:04:47.458Z,101048.53
2022-12-18T05:05:51.637Z,101047.01
2022-12-18T05:06:54.836Z,101050.09
2022-12-18T05:07:57.975Z,101054.00
2022-12-18T05:09:01.036Z,101049.80
2022-12-18T05:10:04.951Z,101058.10
2022-12-18T05:11:11.252Z,101056.41
2022-12-18T05:12:14.334Z,101057.25
2022-12-18T05:13:17.511Z,101056.41
2022-12-18T05:14:21.101Z,101058.64
2022-12-18T05:15:24.910Z,101058.14
2022-12-18T05:16:28.053Z,101058.52
2022-12-18T05:17:31.128Z,101075.97
2022-12-18T05:18:34.424Z,101075.32
2022-12-18T05:19:38.993Z,101069.22
2022-12-18T05:20:42.595Z,101081.92
2022-12-18T05:21:45.632Z,101079.38
2022-12-18T05:22:49.071Z,101077.72
2022-12-18T05:23:52.277Z,101086.02
2022-12-18T05:24:55.463Z,101096.38
2022-12-18T05:26:00.702Z,101089.44
2022-12-18T05:27:03.991Z,101090.14
2022-12-18T05:28:07.112Z,101091.52
2022-12-18T05:29:12.045Z,101081.22
2022-12-18T05:30:16.117Z,101080.70
2022-12-18T05:31:19.420Z,101081.92
2022-12-18T05:32:22.540Z,101088.36
2022-12-18T05:33:27.719Z,101082.26
2022-12-18T05:34:30.911Z,101092.45
2022-12-18T05:35:34.089Z,101086.34
2022-12-18T05:36:37.432Z,101101.10
2022-12-18T05:37:43.200Z,101091.45
2022-12-18T05:38:45.632Z,101103.45
2022-12-18T05:39:48.956Z,101106.37
2022-12-18T05:40:53.595Z,101111.78
2022-12-18T05:41:56.775Z,101110.25
2022-12-18T05:43:00.055Z,101123.95
2022-12-18T05:44:03.177Z,101112.31
2022-12-18T05:45:07.044Z,101118.73
2022-12-18T05:46:19.651Z,101122.30
2022-12-18T05:47:22.900Z,101133.30
2022-12-18T05:48:26.035Z,101136.16
2022-12-18T05:49:29.207Z,101130.09
2022-12-18T05:50:37.740Z,101133.30
2022-12-18T05:51:41.580Z,101131.11
2022-12-18T05:52:45.725Z,101131.31
2022-12-18T05:53:49.481Z,101139.76
2022-12-18T05:54:52.746Z,101143.31
2022-12-18T05:55:59.520Z,101143.67
2022-12-18T05:57:02.737Z,101153.81
2022-12-18T05:58:07.734Z,101152.47
2022-12-18T05:59:11.005Z,101157.20
2022-12-18T06:00:15.100Z,101159.22
2022-12-18T06:01:24.038Z,101153.16
2022-12-18T06:02:27.462Z,101162.28
2022-12-18T06:03:38.271Z,101166.00
2022-12-18T06:04:35.746Z,101164.30
2022-12-18T06:05:46.280Z,101169.72
2022-12-18T06:06:49.433Z,101173.11
2022-12-18T06:07:52.581Z,101170.41
2022-12-18T06:08:57.365Z,101169.72
2022-12-18T06:10:00.630Z,101169.23
2022-12-18T06:11:03.840Z,101180.18
2022-12-18T06:12:07.666Z,101173.06
2022-12-18T06:13:10.855Z,101172.06
2022-12-18T06:14:14.079Z,101177.47
2022-12-18T06:15:17.284Z,101179.20
2022-12-18T06:16:20.526Z,101185.59
2022-12-18T06:17:23.622Z,101184.61
2022-12-18T06:18:26.853Z,101191.00
2022-12-18T06:19:29.932Z,101189.30
2022-12-18T06:20:34.045Z,101181.54
2022-12-18T06:21:37.360Z,101187.11
2022-12-18T06:22:40.531Z,101192.69
2022-12-18T06:23:43.997Z,101193.72
2022-12-18T06:24:47.096Z,101186.45
2022-12-18T06:25:50.671Z,101193.72
2022-12-18T06:26:53.937Z,101196.43
2022-12-18T06:27:57.119Z,101202.69
2022-12-18T06:29:00.368Z,101199.80
2022-12-18T06:30:04.475Z,101202.50
2022-12-18T06:31:07.927Z,101206.22
2022-12-18T06:32:11.076Z,101212.31
2022-12-18T06:33:15.131Z,101208.60
2022-12-18T06:34:18.327Z,101221.13
2022-12-18T06:35:21.482Z,101212.00
2022-12-18T06:36:25.383Z,101213.86
2022-12-18T06:37:28.799Z,101216.37
2022-12-18T06:38:33.293Z,101219.92
2022-12-18T06:39:36.469Z,101225.20
2022-12-18T06:40:40.031Z,101219.80
2022-12-18T06:41:43.349Z,101221.62
2022-12-18T06:42:46.720Z,101225.20
2022-12-18T06:43:50.046Z,101219.08
2022-12-18T06:44:53.393Z,101229.90
2022-12-18T06:46:01.346Z,101238.20
2022-12-18T06:47:05.172Z,101234.13
2022-12-18T06:48:08.331Z,101236.17
2022-12-18T06:49:11.510Z,101242.59
2022-12-18T06:50:14.634Z,101246.46
2022-12-18T06:51:19.432Z,101243.75
2022-12-18T06:52:22.740Z,101236.84
2022-12-18T06:53:26.305Z,101233.28
2022-12-18T06:54:29.462Z,101236.14
2022-12-18T06:55:32.780Z,101244.45
2022-12-18T06:56:36.079Z,101241.91
2022-12-18T06:57:39.353Z,101235.96
2022-12-18T06:58:42.619Z,101246.13
2022-12-18T06:59:45.836Z,101243.58
2022-12-18T07:00:49.102Z,101253.70
2022-12-18T07:01:52.511Z,101252.03
2022-12-18T07:02:55.798Z,101256.59
2022-12-18T07:03:58.957Z,101267.58
2022-12-18T07:05:07.495Z,101264.02
2022-12-18T07:06:09.186Z,101270.28
2022-12-18T07:07:12.181Z,101277.39
2022-12-18T07:08:15.207Z,101273.84
2022-12-18T07:09:18.235Z,101282.10
2022-12-18T07:10:21.612Z,101293.92
2022-12-18T07:11:24.815Z,101284.81
2022-12-18T07:12:28.322Z,101286.51
2022-12-18T07:13:32.132Z,101296.48
2022-12-18T07:14:35.340Z,101299.19
2022-12-18T07:15:38.392Z,101303.90
2022-12-18T07:16:42.191Z,101307.80
2022-12-18T07:17:45.303Z,101317.92
2022-12-18T07:18:48.633Z,101304.58
2022-12-18T07:19:51.720Z,101313.70
2022-12-18T07:20:54.852Z,101313.01
2022-12-18T07:21:57.914Z,101312.31
2022-12-18T07:23:03.489Z,101313.34
2022-12-18T07:24:07.038Z,101312.66
2022-12-18T07:25:10.131Z,101308.95
2022-12-18T07:26:14.274Z,101306.55
2022-12-18T07:27:17.413Z,101318.41
2022-12-18T07:28:20.611Z,101308.74
2022-12-18T07:29:23.741Z,101309.59
2022-12-18T07:30:26.903Z,101311.60
2022-12-18T07:31:30.160Z,101317.20
2022-12-18T07:32:33.308Z,101318.02
2022-12-18T07:33:37.140Z,101322.42
2022-12-18T07:34:40.453Z,101312.45
2022-12-18T07:35:43.510Z,101325.81
2022-12-18T07:36:46.556Z,101325.66
2022-12-18T07:37:49.732Z,101325.48
2022-12-18T07:38:53.417Z,101330.58
2022-12-18T07:39:56.630Z,101330.42
2022-12-18T07:41:06.795Z,101344.77
2022-12-18T07:42:28.440Z,101336.65
2022-12-18T07:43:31.911Z,101339.54
2022-12-18T07:44:35.077Z,101345.10
2022-12-18T07:45:38.306Z,101351.52
2022-12-18T07:46:41.613Z,101348.97
2022-12-18T07:47:44.703Z,101362.67
2022-12-18T07:48:49.592Z,101357.41
2022-12-18T07:49:53.015Z,101359.42
2022-12-18T07:51:00.258Z,101356.05
2022-12-18T07:52:03.490Z,101357.20
2022-12-18T07:53:06.626Z,101362.95
2022-12-18T07:54:09.747Z,101352.30
2022-12-18T07:55:12.859Z,101354.14
2022-12-18T07:56:27.231Z,101361.41
2022-12-18T07:57:49.064Z,101356.00
2022-12-18T07:58:26.229Z,101365.95
2022-12-18T07:59:29.487Z,101355.33
2022-12-18T08:00:32.672Z,101352.94
2022-12-18T08:01:36.213Z,101366.59
2022-12-18T08:02:39.728Z,101357.98
2022-12-18T08:03:43.339Z,101358.13
2022-12-18T08:04:46.871Z,101364.38
2022-12-18T08:05:50.063Z,101351.87
2022-12-18T08:06:53.401Z,101356.27
2022-12-18T08:07:56.920Z,101352.91
2022-12-18T08:09:00.105Z,101354.75
2022-12-18T08:10:03.806Z,101352.91
2022-12-18T08:11:07.342Z,101347.66
2022-12-18T08:12:10.529Z,101340.39
2022-12-18T08:13:13.586Z,101343.25
2022-12-18T08:14:16.826Z,101352.36
2022-12-18T08:15:20.037Z,101344.43
2022-12-18T08:16:23.515Z,101340.88
2022-12-18T08:17:27.468Z,101332.77
2022-12-18T08:18:30.780Z,101344.43
2022-12-18T08:19:34.013Z,101349.98
2022-12-18T08:20:37.355Z,101356.06
2022-12-18T08:21:40.546Z,101355.91
2022-12-18T08:22:43.669Z,101350.35
2022-12-18T08:23:47.172Z,101345.65
2022-12-18T08:24:50.823Z,101359.98
2022-12-18T08:25:53.874Z,101360.16
2022-12-18T08:27:27.946Z,101365.56
2022-12-18T08:28:02.689Z,101362.87
2022-12-18T08:29:05.866Z,101353.05
2022-12-18T08:30:10.212Z,101361.31
2022-12-18T08:31:13.324Z,101360.47
2022-12-18T08:32:16.477Z,101354.20
2022-12-18T08:33:19.593Z,101359.61
2022-12-18T08:34:22.665Z,101357.09
2022-12-18T08:35:25.762Z,101356.24
2022-12-18T08:36:29.000Z,101365.87
2022-12-18T08:37:32.129Z,101367.57
2022-12-18T08:38:35.325Z,101369.27
2022-12-18T08:39:38.537Z,101366.57
2022-12-18T08:40:41.631Z,101374.83
2022-12-18T08:41:46.604Z,101371.12
2022-12-18T08:43:08.093Z,101369.58
2022-12-18T08:44:29.708Z,101367.05
2022-12-18T08:45:33.889Z,101368.91
2022-12-18T08:46:42.507Z,101371.06
2022-12-18T08:47:45.599Z,101374.95
2022-12-18T08:48:52.327Z,101380.65
2022-12-18T08:49:55.618Z,101376.43
2022-12-18T08:51:00.330Z,101382.13
2022-12-18T08:52:03.612Z,101379.61
2022-12-18T08:53:07.099Z,101384.31
2022-12-18T08:54:13.486Z,101373.84
2022-12-18T08:55:16.595Z,101376.84
2022-12-18T08:56:19.816Z,101375.46
2022-12-18T08:57:22.848Z,101379.31
2022-12-18T08:58:25.956Z,101367.84
2022-12-18T08:59:28.890Z,101378.94
2022-12-18T09:00:32.147Z,101383.67
2022-12-18T09:01:35.394Z,101374.48
2022-12-18T09:02:38.847Z,101374.48
2022-12-18T09:03:42.621Z,101371.27
2022-12-18T09:04:52.386Z,101365.16
2022-12-18T09:05:52.833Z,101363.61
2022-12-18T09:06:56.074Z,101367.33
2022-12-18T09:07:59.323Z,101369.19
2022-12-18T09:09:03.584Z,101372.55
2022-12-18T09:10:07.358Z,101379.66
2022-12-18T09:11:17.168Z,101383.36
2022-12-18T09:12:20.243Z,101384.06
2022-12-18T09:13:24.533Z,101380.22
2022-12-18T09:14:27.734Z,101368.38
2022-12-18T09:15:30.919Z,101384.59
2022-12-18T09:16:35.516Z,101385.29
2022-12-18T09:17:38.703Z,101390.69
2022-12-18T09:18:42.516Z,101395.09
2022-12-18T09:19:45.873Z,101392.25
2022-12-18T09:20:50.786Z,101397.64
2022-12-18T09:21:53.956Z,101393.06
2022-12-18T09:22:57.176Z,101392.06
2022-12-18T09:24:00.622Z,101386.52
2022-12-18T09:25:04.178Z,101390.22
2022-12-18T09:26:07.943Z,101388.52
2022-12-18T09:27:11.156Z,101389.55
2022-12-18T09:28:19.446Z,101390.55
2022-12-18T09:29:22.714Z,101394.09
2022-12-18T09:30:25.952Z,101389.69
2022-12-18T09:31:29.134Z,101391.39
2022-12-18T09:32:32.128Z,101396.80
2022-12-18T09:33:37.000Z,101397.47
2022-12-18T09:34:40.309Z,101390.22
2022-12-18T09:35:45.378Z,101382.97
2022-12-18T09:36:49.031Z,101384.67
2022-12-18T09:37:54.030Z,101385.52
2022-12-18T09:38:58.171Z,101390.07
2022-12-18T09:40:01.418Z,101393.92
2022-12-18T09:41:41.642Z,101395.77
2022-12-18T09:42:48.433Z,101394.24
2022-12-18T09:43:58.289Z,101395.95
2022-12-18T09:45:03.444Z,101390.55
2022-12-18T09:46:09.790Z,101391.92
2022-12-18T09:47:16.695Z,101395.47
2022-12-18T09:48:29.634Z,101399.70
2022-12-18T09:49:36.527Z,101400.55
2022-12-18T09:50:41.143Z,101393.30
2022-12-18T09:51:54.128Z,101401.39
2022-12-18T09:53:00.708Z,101396.17
2022-12-18T09:54:10.226Z,101400.02
2022-12-18T09:55:37.454Z,101393.92
2022-12-18T09:56:42.983Z,101395.95
2022-12-18T09:57:52.583Z,101396.95
2022-12-18T09:58:59.278Z,101403.34
2022-12-18T10:01:23.225Z,101396.84
2022-12-18T10:02:29.461Z,101397.94
2022-12-18T10:03:32.825Z,101397.23
2022-12-18T10:04:35.972Z,101403.48
2022-12-18T10:05:57.284Z,101399.79
2022-12-18T10:07:08.990Z,101398.94
2022-12-18T10:08:16.076Z,101401.64
2022-12-18T10:09:26.670Z,101407.04
2022-12-18T10:10:42.761Z,101402.64
2022-12-18T10:12:13.811Z,101399.94
2022-12-18T10:13:29.431Z,101414.30
2022-12-18T10:16:18.711Z,101402.10
2022-12-18T10:17:31.452Z,101412.15
2022-12-18T10:18:44.364Z,101407.42
2022-12-18T10:21:14.250Z,101422.09
2022-12-18T10:22:26.700Z,101410.83
2022-12-18T10:23:48.433Z,101414.52
2022-12-18T10:26:10.538Z,101419.16
2022-12-18T10:27:16.775Z,101414.15
2022-12-18T10:28:21.038Z,101416.14
2022-12-18T10:29:26.216Z,101411.77
2022-12-18T10:30:29.423Z,101418.02
2022-12-18T10:31:32.739Z,101411.59
2022-12-18T10:32:36.288Z,101415.99
2022-12-18T10:33:39.372Z,101407.75
2022-12-18T10:34:44.234Z,101415.84
2022-12-18T10:35:50.418Z,101414.15
2022-12-18T10:36:54.275Z,101415.84
2022-12-18T10:38:09.651Z,101414.84
2022-12-18T10:39:22.984Z,101421.10
2022-12-18T10:40:26.282Z,101415.14
2022-12-18T10:41:31.126Z,101418.84
2022-12-18T10:42:34.416Z,101417.17
2022-12-18T10:43:39.849Z,101415.47
2022-12-18T10:44:42.893Z,101423.72
2022-12-18T10:46:05.911Z,101412.91
2022-12-18T10:47:18.621Z,101412.20
2022-12-18T10:48:22.862Z,101415.76
2022-12-18T10:49:32.222Z,101414.91
2022-12-18T10:51:09.635Z,101410.54
2022-12-18T10:51:43.044Z,101417.79
2022-12-18T10:52:49.717Z,101423.48
2022-12-18T10:55:16.003Z,101428.27
2022-12-18T10:56:21.481Z,101422.42
2022-12-18T10:57:37.316Z,101434.22
2022-12-18T10:58:41.167Z,101439.77
2022-12-18T10:59:53.342Z,101429.11
2022-12-18T11:01:03.738Z,101430.28
2022-12-18T11:02:10.496Z,101434.83
2022-12-18T11:03:38.474Z,101433.98
2022-12-18T11:04:45.579Z,101434.13
2022-12-18T11:05:52.776Z,101434.05
2022-12-18T11:07:02.006Z,101438.36
2022-12-18T11:08:05.127Z,101438.95
2022-12-18T11:09:22.963Z,101437.72
2022-12-18T11:10:32.393Z,101445.27
2022-12-18T11:11:36.173Z,101436.79
2022-12-18T11:12:40.196Z,101437.78
2022-12-18T11:13:46.722Z,101437.92
2022-12-18T11:14:53.138Z,101437.07
2022-12-18T11:15:56.658Z,101441.47
2022-12-18T11:18:19.063Z,101442.33
2022-12-18T11:19:40.616Z,101446.02
2022-12-18T11:20:47.948Z,101440.94
2022-12-18T11:21:51.706Z,101462.52
2022-12-18T11:24:20.378Z,101447.33
2022-12-18T11:25:34.550Z,101447.33
2022-12-18T11:26:37.617Z,101450.87
2022-12-18T11:27:41.074Z,101444.48
2022-12-18T11:28:52.630Z,101444.31
2022-12-18T11:30:11.213Z,101455.10
2022-12-18T11:31:32.111Z,101447.18
2022-12-18T11:32:36.661Z,101453.57
2022-12-18T11:33:58.499Z,101452.86
2022-12-18T11:34:57.412Z,101452.32
2022-12-18T11:36:00.423Z,101449.77
2022-12-18T11:37:04.914Z,101456.02
2022-12-18T11:39:34.480Z,101462.73
2022-12-18T11:40:41.533Z,101456.55
2022-12-18T11:42:12.220Z,101470.89
2022-12-18T11:43:27.947Z,101464.64
2022-12-18T11:44:52.743Z,101464.50
2022-12-18T11:45:59.276Z,101470.03
2022-12-18T11:47:18.027Z,101461.27
2022-12-18T11:48:30.397Z,101471.34
2022-12-18T11:49:36.977Z,101469.10
2022-12-18T11:50:50.054Z,101466.00
2022-12-18T11:51:59.611Z,101466.00
2022-12-18T11:53:06.121Z,101475.94
2022-12-18T11:54:14.177Z,101469.83
2022-12-18T11:55:23.420Z,101471.13
2022-12-18T11:56:39.423Z,101471.13
2022-12-18T11:57:49.117Z,101479.53
2022-12-18T12:00:12.681Z,101481.20
2022-12-18T12:01:46.272Z,101488.80
2022-12-18T12:03:04.437Z,101481.16
2022-12-18T12:04:20.266Z,101481.16
2022-12-18T12:05:29.959Z,101489.23
2022-12-18T12:07:03.595Z,101495.63
2022-12-18T12:08:28.084Z,101494.05
2022-12-18T12:09:41.035Z,101498.89
2022-12-18T12:10:50.815Z,101508.41
2022-12-18T12:12:18.640Z,101508.69
2022-12-18T12:13:31.271Z,101510.11
2022-12-18T12:14:50.140Z,101510.11
2022-12-18T12:16:02.951Z,101501.06
2022-12-18T12:17:27.511Z,101501.06
2022-12-18T12:18:43.461Z,101503.05
2022-12-18T12:20:02.235Z,101505.73
2022-12-18T12:21:25.112Z,101501.20
2022-12-18T12:23:05.109Z,101504.06
2022-12-18T12:24:29.088Z,101511.30
2022-12-18T12:25:47.667Z,101512.97
2022-12-18T12:27:09.388Z,101509.28
2022-12-18T12:28:34.380Z,101519.20
2022-12-18T12:30:10.365Z,101513.81
2022-12-18T12:31:52.232Z,101520.06
2022-12-18T12:33:04.915Z,101517.53
2022-12-18T12:34:17.420Z,101522.20
2022-12-18T12:35:40.615Z,101526.02
2022-12-18T12:37:10.338Z,101527.73
2022-12-18T12:38:22.689Z,101532.98
2022-12-18T12:39:29.378Z,101532.84
2022-12-18T12:40:57.035Z,101531.99
2022-12-18T12:42:00.928Z,101533.70
2022-12-18T12:43:23.935Z,101537.22
2022-12-18T12:44:33.317Z,101540.62
2022-12-18T12:45:55.672Z,101538.79
2022-12-18T12:47:03.878Z,101546.16
2022-12-18T12:48:10.671Z,101536.53
2022-12-18T12:49:22.400Z,101536.53
2022-12-18T12:50:26.790Z,101536.53
2022-12-18T12:51:39.512Z,101542.77
2022-12-18T12:52:46.932Z,101545.30
2022-12-18T12:53:50.677Z,101547.86
2022-12-18T12:54:54.678Z,101554.95
2022-12-18T12:55:59.006Z,101546.73
2022-12-18T12:57:20.850Z,101552.13
2022-12-18T12:58:28.806Z,101555.51
2022-12-18T12:59:53.540Z,101557.94
2022-12-18T13:01:12.940Z,101553.53
2022-12-18T13:02:46.336Z,101560.90
2022-12-18T13:04:09.778Z,101566.28
2022-12-18T13:05:41.209Z,101565.73